Terminal Aerodrome Forecast
Issued by NWS Brownsville, TX

Home | Current Version | Previous Version | Text Only | Print | Product List | Glossary On
Versions: 1 2 3 4 5 6 7 8 9 10 11 12 13 14 15 16 17 18 19 20 21 22
790
FTUS44 KBRO 301406 AAB
TAFBRO
TAF AMD
KBRO 301406Z 3014/3112 11008KT P6SM SCT019
      TEMPO 3014/3018 BKN025
     FM301800 14015G20KT P6SM BKN025
     FM310300 14008KT P6SM FEW030 BKN200=

USA.gov is the U.S. government's official web portal to all federal, state and local government web resources and services.